Time;durP1;ratioP1;P1;durP2;ratioP2;P2;SDS_P1;SDS_P2;PMS_P1;PMS_P2;Temp;Humidity;BMP_temperature;BMP_pressure;BME280_temperature;BME280_humidity;BME280_pressure;Samples;Min_cycle;Max_cycle;Signal;HPM_P1;HPM_P2
2023/03/24 00:01:06;;;;;;;10.43;3.10;;;10.80;99.90;;;;;;5069280;28;20040;-83
2023/03/24 00:03:33;;;;;;;8.25;3.00;;;10.80;99.90;;;;;;5085759;28;20107;-84
2023/03/24 00:06:02;;;;;;;7.40;3.17;;;10.80;99.90;;;;;;5068442;28;20141;-83
2023/03/24 00:08:33;;;;;;;9.40;2.92;;;10.80;99.90;;;;;;5069046;28;20931;-83
2023/03/24 00:11:02;;;;;;;8.23;3.25;;;10.90;99.90;;;;;;5085311;28;20045;-84
2023/03/24 00:13:31;;;;;;;6.72;3.20;;;10.90;99.90;;;;;;5102256;28;20483;-84
2023/03/24 00:15:58;;;;;;;9.02;3.08;;;10.90;99.90;;;;;;5101999;28;20489;-84
2023/03/24 00:18:29;;;;;;;9.40;2.80;;;10.90;99.90;;;;;;5085869;28;20040;-84
2023/03/24 00:20:57;;;;;;;6.03;2.83;;;10.90;99.90;;;;;;5085463;28;20039;-83
2023/03/24 00:23:26;;;;;;;7.80;2.92;;;10.90;99.90;;;;;;5085107;28;20045;-84
2023/03/24 00:26:05;;;;;;;10.38;2.85;;;10.90;99.90;;;;;;5068564;28;20047;-84
2023/03/24 00:28:35;;;;;;;7.57;2.83;;;10.90;99.90;;;;;;5101994;28;20033;-83
2023/03/24 00:31:04;;;;;;;13.57;2.92;;;10.90;99.90;;;;;;5102054;28;20123;-83
2023/03/24 00:33:33;;;;;;;8.02;2.83;;;10.90;99.90;;;;;;5085508;28;20481;-83
2023/03/24 00:36:05;;;;;;;7.18;2.95;;;10.90;99.90;;;;;;5052173;28;20072;-82
2023/03/24 00:38:33;;;;;;;5.32;2.88;;;10.90;99.90;;;;;;5085575;28;20444;-84
2023/03/24 00:41:01;;;;;;;7.05;2.80;;;10.90;99.90;;;;;;5069103;28;20042;-83
2023/03/24 00:43:28;;;;;;;7.43;2.95;;;10.90;99.90;;;;;;5085572;28;20068;-83
2023/03/24 00:46:05;;;;;;;10.45;2.90;;;10.90;99.90;;;;;;5052274;28;20379;-83
2023/03/24 00:48:32;;;;;;;6.97;3.00;;;10.90;99.90;;;;;;5085092;28;20118;-83
2023/03/24 00:51:03;;;;;;;6.53;2.90;;;10.80;99.90;;;;;;5101663;28;20397;-83
2023/03/24 00:53:30;;;;;;;7.97;2.67;;;10.80;99.90;;;;;;5085242;28;20047;-83
2023/03/24 00:55:57;;;;;;;7.65;2.83;;;10.80;99.90;;;;;;5084910;28;20468;-83
2023/03/24 00:58:24;;;;;;;10.93;3.50;;;10.80;99.90;;;;;;5085388;28;20405;-83
2023/03/24 01:00:54;;;;;;;9.27;2.70;;;10.80;99.90;;;;;;5102438;28;20037;-83
2023/03/24 01:03:25;;;;;;;7.00;2.78;;;10.80;99.90;;;;;;5072983;28;20112;-83
2023/03/24 01:05:56;;;;;;;8.25;2.70;;;10.80;99.90;;;;;;5072431;28;20072;-83
2023/03/24 01:08:24;;;;;;;7.65;2.88;;;10.80;99.90;;;;;;5072023;28;20041;-83
2023/03/24 01:10:53;;;;;;;6.28;2.47;;;10.80;99.90;;;;;;5089180;28;20049;-83
2023/03/24 01:13:25;;;;;;;7.72;2.72;;;10.80;99.90;;;;;;5052571;28;20041;-83
2023/03/24 01:15:53;;;;;;;7.80;2.60;;;10.80;99.90;;;;;;5052686;28;20038;-83
2023/03/24 01:18:22;;;;;;;7.70;2.72;;;10.80;99.90;;;;;;5069326;28;20084;-83
2023/03/24 01:20:49;;;;;;;9.43;2.67;;;10.80;99.90;;;;;;5068446;28;20064;-83
2023/03/24 01:23:20;;;;;;;5.63;2.70;;;10.80;99.90;;;;;;5068371;28;20033;-83
2023/03/24 01:25:48;;;;;;;6.35;2.95;;;10.80;99.90;;;;;;5085523;28;20050;-83
2023/03/24 01:28:20;;;;;;;6.82;2.30;;;10.80;99.90;;;;;;5088229;28;20049;-83
2023/03/24 01:30:47;;;;;;;7.20;2.65;;;10.80;99.90;;;;;;5072248;28;20047;-83
2023/03/24 01:33:14;;;;;;;7.80;2.85;;;10.80;99.90;;;;;;5089253;28;20036;-83
2023/03/24 01:35:41;;;;;;;7.07;2.80;;;10.80;99.90;;;;;;5088674;28;20108;-83
2023/03/24 01:38:09;;;;;;;5.05;2.53;;;10.80;99.90;;;;;;5088285;28;20505;-83
2023/03/24 01:40:40;;;;;;;11.80;3.08;;;10.80;99.90;;;;;;5104909;28;20037;-83
2023/03/24 01:43:18;;;;;;;6.18;2.75;;;10.80;99.90;;;;;;5088023;28;20041;-83
2023/03/24 01:46:07;;;;;;;5.32;2.90;;;10.80;99.90;;;;;;5072015;28;20171;-84
2023/03/24 01:48:57;;;;;;;5.72;2.45;;;10.80;99.90;;;;;;5122037;28;20059;-83
2023/03/24 01:51:38;;;;;;;7.90;2.78;;;10.80;99.90;;;;;;5104742;28;20048;-83
2023/03/24 01:54:15;;;;;;;9.20;2.97;;;10.80;99.90;;;;;;5088249;28;20041;-83
2023/03/24 01:56:49;;;;;;;7.93;2.63;;;10.80;99.90;;;;;;5071346;28;20520;-83
2023/03/24 01:59:29;;;;;;;4.68;2.30;;;10.80;99.90;;;;;;5104690;28;20094;-84
2023/03/24 02:02:02;;;;;;;4.50;2.42;;;10.80;99.90;;;;;;5087766;28;20123;-82
2023/03/24 02:04:39;;;;;;;5.07;2.35;;;10.80;99.90;;;;;;5088339;28;20041;-83
2023/03/24 02:07:40;;;;;;;6.68;2.45;;;10.80;99.90;;;;;;5070910;28;20111;-82
2023/03/24 02:10:12;;;;;;;6.05;2.55;;;10.80;99.90;;;;;;5070587;28;20053;-83
2023/03/24 02:12:40;;;;;;;6.28;2.40;;;10.80;99.90;;;;;;5104621;28;20099;-83
2023/03/24 02:15:09;;;;;;;5.55;2.38;;;10.80;99.90;;;;;;5104805;28;20037;-84
2023/03/24 02:18:00;;;;;;;5.53;2.58;;;10.80;99.90;;;;;;5071136;28;20037;-83
2023/03/24 02:20:39;;;;;;;6.85;2.58;;;10.80;99.90;;;;;;5121131;28;20116;-83
2023/03/24 02:23:52;;;;;;;11.05;2.75;;;10.80;99.90;;;;;;5104277;28;20087;-83
2023/03/24 02:26:28;;;;;;;5.90;2.78;;;10.80;99.90;;;;;;5090024;28;20033;-83
2023/03/24 02:29:04;;;;;;;;;;;10.90;99.90;;;;;;5070775;28;20048;-83
2023/03/24 02:32:09;;;;;;;6.22;2.33;;;10.90;99.90;;;;;;5104384;28;20693;-83
2023/03/24 02:34:53;;;;;;;5.03;2.47;;;10.90;99.90;;;;;;5103535;28;20041;-83
2023/03/24 02:37:20;;;;;;;8.75;2.60;;;10.90;99.90;;;;;;5070626;28;20513;-83
2023/03/24 02:40:22;;;;;;;5.78;2.67;;;10.90;99.90;;;;;;5104260;28;20087;-83
2023/03/24 02:43:04;;;;;;;5.65;2.63;;;10.90;99.90;;;;;;5087695;28;20091;-83
2023/03/24 02:45:30;;;;;;;4.80;2.60;;;10.90;99.90;;;;;;5071247;28;20041;-83
2023/03/24 02:48:15;;;;;;;9.45;3.42;;;11.00;99.90;;;;;;5087154;28;20135;-83
2023/03/24 02:50:51;;;;;;;5.88;2.60;;;11.00;99.90;;;;;;5104211;28;20045;-83
2023/03/24 02:53:36;;;;;;;6.72;2.90;;;11.00;99.90;;;;;;5103441;28;20453;-83
2023/03/24 02:56:31;;;;;;;7.20;3.08;;;11.00;99.90;;;;;;5103462;28;20098;-83
2023/03/24 02:59:06;;;;;;;5.83;2.90;;;11.00;99.90;;;;;;5090596;28;20143;-83
2023/03/24 03:01:53;;;;;;;5.95;2.67;;;11.00;99.90;;;;;;5087577;28;20303;-83
2023/03/24 03:04:25;;;;;;;6.85;2.83;;;11.00;99.90;;;;;;5103648;28;20407;-83
2023/03/24 03:06:57;;;;;;;6.68;2.90;;;11.00;99.90;;;;;;5070602;28;20040;-83
2023/03/24 03:09:26;;;;;;;5.65;2.88;;;11.00;99.90;;;;;;5069940;28;20068;-83
2023/03/24 03:11:57;;;;;;;7.75;3.00;;;11.00;99.90;;;;;;5070604;28;20045;-84
2023/03/24 03:14:32;;;;;;;6.32;2.80;;;11.00;99.90;;;;;;5070272;28;20052;-84
2023/03/24 03:17:08;;;;;;;7.10;3.00;;;11.00;99.90;;;;;;5070039;28;20045;-83
2023/03/24 03:19:42;;;;;;;7.93;2.70;;;11.00;99.90;;;;;;5120344;28;20041;-83
2023/03/24 03:22:17;;;;;;;5.45;2.70;;;11.00;99.90;;;;;;5070039;28;20041;-83
2023/03/24 03:24:49;;;;;;;4.93;2.80;;;11.00;99.90;;;;;;5069215;28;20041;-83
2023/03/24 03:27:19;;;;;;;5.82;2.72;;;11.00;99.90;;;;;;5069873;28;20040;-83
2023/03/24 03:29:55;;;;;;;4.50;2.85;;;11.00;99.90;;;;;;5103157;28;20127;-83
2023/03/24 03:32:34;;;;;;;6.07;3.03;;;11.00;99.90;;;;;;5069753;28;20044;-83
2023/03/24 03:35:10;;;;;;;5.03;2.70;;;11.00;99.90;;;;;;5103525;28;20493;-83
2023/03/24 03:37:56;;;;;;;7.47;3.00;;;11.10;99.90;;;;;;5086677;28;20059;-83
2023/03/24 03:40:41;;;;;;;6.20;2.63;;;11.00;99.90;;;;;;5069618;28;20089;-83
2023/03/24 03:43:08;;;;;;;8.15;3.00;;;11.10;99.90;;;;;;5086375;28;20041;-83
2023/03/24 03:45:35;;;;;;;6.03;2.70;;;11.10;99.90;;;;;;5103337;28;20714;-84
2023/03/24 03:48:02;;;;;;;5.75;2.65;;;11.10;99.90;;;;;;5069758;28;20080;-83
2023/03/24 03:50:30;;;;;;;6.07;2.63;;;11.10;99.90;;;;;;5085782;28;20178;-83
2023/03/24 03:52:56;;;;;;;5.78;3.10;;;11.10;99.90;;;;;;5069380;28;20045;-83
2023/03/24 03:55:23;;;;;;;6.55;3.17;;;11.20;99.90;;;;;;5085920;28;20109;-83
2023/03/24 03:57:50;;;;;;;7.63;2.97;;;11.10;99.90;;;;;;5085665;28;20041;-83
2023/03/24 04:00:19;;;;;;;6.18;2.78;;;11.20;99.90;;;;;;5085671;28;20064;-83
2023/03/24 04:03:04;;;;;;;4.65;2.58;;;11.20;99.90;;;;;;5120021;28;20040;-83
2023/03/24 04:05:36;;;;;;;6.40;2.65;;;11.20;99.90;;;;;;5069173;28;20424;-83
2023/03/24 04:08:21;;;;;;;6.70;2.65;;;11.20;99.90;;;;;;5102816;28;20044;-84
2023/03/24 04:11:15;;;;;;;3.50;1.45;;;11.20;99.90;;;;;;5102456;28;20588;-84
2023/03/24 04:14:11;;;;;;;3.42;1.50;;;11.10;99.90;;;;;;5085733;28;20601;-84
2023/03/24 04:16:38;;;;;;;4.45;1.85;;;10.90;99.90;;;;;;5102207;28;20041;-83
2023/03/24 04:19:19;;;;;;;4.55;1.73;;;10.80;99.90;;;;;;5102536;28;20045;-83
2023/03/24 04:21:51;;;;;;;3.30;1.50;;;10.80;99.90;;;;;;5102179;28;20468;-83
2023/03/24 04:24:31;;;;;;;2.90;1.40;;;10.70;99.90;;;;;;5102277;28;20037;-83
2023/03/24 04:27:37;;;;;;;3.83;1.45;;;10.70;99.90;;;;;;5085595;28;20041;-83
2023/03/24 04:30:31;;;;;;;4.15;1.48;;;10.70;99.90;;;;;;5085584;28;20057;-83
2023/03/24 04:33:03;;;;;;;7.60;2.10;;;10.60;99.90;;;;;;5066085;28;20128;-83
2023/03/24 04:35:35;;;;;;;4.40;1.60;;;10.60;99.90;;;;;;5065650;28;20033;-83
2023/03/24 04:38:29;;;;;;;8.65;1.80;;;10.50;99.90;;;;;;5101951;28;20456;-83
2023/03/24 04:40:56;;;;;;;3.65;1.23;;;10.40;99.90;;;;;;5067423;28;20048;-83
2023/03/24 04:43:27;;;;;;;5.43;1.20;;;10.40;99.90;;;;;;5068113;28;20068;-83
2023/03/24 04:45:56;;;;;;;5.72;1.58;;;10.40;99.90;;;;;;5068636;28;20098;-83
2023/03/24 04:48:24;;;;;;;5.60;1.40;;;10.40;99.90;;;;;;5101817;28;20088;-82
2023/03/24 04:50:57;;;;;;;4.93;1.40;;;10.30;99.90;;;;;;5085483;28;20504;-83
2023/03/24 04:53:24;;;;;;;5.55;1.30;;;10.30;99.90;;;;;;5102020;28;20033;-83
2023/03/24 04:56:05;;;;;;;4.88;1.23;;;10.20;99.90;;;;;;5085633;28;20040;-83
2023/03/24 04:58:32;;;;;;;9.02;1.70;;;10.20;99.90;;;;;;5102199;28;20045;-83
2023/03/24 05:00:59;;;;;;;5.97;1.30;;;10.20;99.90;;;;;;5101947;28;20140;-83
2023/03/24 05:03:25;;;;;;;4.45;1.38;;;10.10;99.90;;;;;;5068928;28;20422;-83
2023/03/24 05:05:52;;;;;;;3.75;1.20;;;10.10;99.90;;;;;;5068938;28;20076;-83
2023/03/24 05:08:20;;;;;;;5.20;1.20;;;10.10;99.90;;;;;;5068869;28;20397;-84
2023/03/24 05:10:46;;;;;;;7.28;1.38;;;10.00;99.90;;;;;;5068094;28;20053;-83
2023/03/24 05:13:13;;;;;;;4.22;1.10;;;10.00;99.90;;;;;;5052367;28;20512;-83
2023/03/24 05:15:40;;;;;;;4.85;1.23;;;10.00;99.90;;;;;;5051699;28;20045;-83
2023/03/24 05:18:08;;;;;;;3.17;0.93;;;9.90;99.90;;;;;;5052061;28;20045;-84
2023/03/24 05:20:35;;;;;;;6.93;1.73;;;9.90;99.90;;;;;;5051997;28;20068;-84
2023/03/24 05:23:02;;;;;;;4.60;1.40;;;9.90;99.90;;;;;;5068409;28;20127;-84
2023/03/24 05:25:28;;;;;;;4.75;1.42;;;9.90;99.90;;;;;;5051951;28;20190;-83
2023/03/24 05:27:55;;;;;;;3.95;1.30;;;9.90;99.90;;;;;;5051988;28;20094;-84
2023/03/24 05:30:22;;;;;;;7.80;1.50;;;9.90;99.90;;;;;;5068243;28;20045;-83
2023/03/24 05:32:48;;;;;;;5.15;1.40;;;9.80;99.90;;;;;;5051225;28;20040;-83
2023/03/24 05:35:15;;;;;;;5.65;1.60;;;9.80;99.90;;;;;;5084933;28;20041;-83
2023/03/24 05:37:42;;;;;;;8.10;1.83;;;9.80;99.90;;;;;;5084896;28;20049;-83
2023/03/24 05:40:10;;;;;;;5.53;1.50;;;9.80;99.90;;;;;;5101820;28;20032;-83
2023/03/24 05:42:36;;;;;;;8.57;1.52;;;9.80;99.90;;;;;;5084032;28;20097;-83
2023/03/24 05:45:04;;;;;;;8.27;1.80;;;9.80;99.90;;;;;;5083963;28;20037;-83
2023/03/24 05:47:32;;;;;;;6.50;1.98;;;9.80;99.90;;;;;;5103045;28;20567;-83
2023/03/24 05:49:59;;;;;;;8.82;1.50;;;9.80;99.90;;;;;;5071365;28;20049;-83
2023/03/24 05:52:25;;;;;;;11.35;1.75;;;9.70;99.90;;;;;;5071069;28;20037;-83
2023/03/24 05:54:52;;;;;;;9.23;2.25;;;9.70;99.90;;;;;;5087534;28;20114;-83
2023/03/24 05:57:20;;;;;;;6.47;1.75;;;9.60;99.90;;;;;;5054942;28;20053;-83
2023/03/24 05:59:46;;;;;;;8.93;1.83;;;9.60;99.90;;;;;;5087782;28;20423;-84
2023/03/24 06:02:13;;;;;;;13.80;2.03;;;9.60;99.90;;;;;;5054365;28;20081;-83
2023/03/24 06:04:44;;;;;;;8.32;1.90;;;9.60;99.90;;;;;;5087767;28;20098;-83
2023/03/24 06:07:12;;;;;;;13.40;2.10;;;9.60;99.90;;;;;;5072384;28;20119;-83
2023/03/24 06:09:41;;;;;;;14.70;2.25;;;9.60;99.90;;;;;;5087856;28;20053;-83
2023/03/24 06:12:08;;;;;;;9.80;2.40;;;9.50;99.90;;;;;;5088375;28;20045;-84
2023/03/24 06:14:35;;;;;;;8.45;2.10;;;9.50;99.90;;;;;;5087881;28;20390;-83
2023/03/24 06:17:02;;;;;;;11.38;2.20;;;9.60;99.90;;;;;;5071339;28;20047;-83
2023/03/24 06:19:29;;;;;;;9.73;2.00;;;9.60;99.90;;;;;;5087681;28;20056;-83
2023/03/24 06:22:01;;;;;;;7.22;1.80;;;9.60;99.90;;;;;;5120959;28;20128;-84
2023/03/24 06:24:29;;;;;;;7.47;1.85;;;9.70;99.90;;;;;;5071475;28;20032;-84
2023/03/24 06:26:58;;;;;;;9.70;2.25;;;9.70;99.90;;;;;;5104460;28;20076;-83
2023/03/24 06:29:24;;;;;;;10.50;1.85;;;9.70;99.90;;;;;;5070956;28;20485;-83
2023/03/24 06:31:51;;;;;;;6.95;1.75;;;9.70;99.90;;;;;;5070831;28;20102;-84
2023/03/24 06:34:18;;;;;;;10.65;2.10;;;9.70;99.90;;;;;;5071295;28;20044;-84
2023/03/24 06:36:44;;;;;;;9.68;1.83;;;9.70;99.90;;;;;;5087125;28;20131;-83
2023/03/24 06:39:11;;;;;;;7.15;1.52;;;9.70;99.90;;;;;;5087607;28;20048;-83
2023/03/24 06:41:38;;;;;;;9.98;1.98;;;9.80;99.90;;;;;;5103772;28;20043;-83
2023/03/24 06:44:04;;;;;;;10.07;2.20;;;9.70;99.90;;;;;;5070787;28;20032;-83
2023/03/24 06:46:31;;;;;;;10.45;2.28;;;9.70;99.90;;;;;;5104246;28;20555;-84
2023/03/24 06:48:58;;;;;;;10.38;2.38;;;9.70;99.90;;;;;;5103992;28;20143;-83
2023/03/24 06:51:24;;;;;;;8.88;1.83;;;9.70;99.90;;;;;;5070686;28;20052;-83
2023/03/24 06:53:51;;;;;;;7.45;1.70;;;9.70;99.90;;;;;;5104120;28;20090;-83
2023/03/24 06:56:19;;;;;;;12.43;2.38;;;9.70;99.90;;;;;;5087630;28;20078;-83
2023/03/24 06:58:47;;;;;;;10.63;1.85;;;9.70;99.90;;;;;;5069620;28;20557;-83
2023/03/24 07:01:13;;;;;;;10.27;1.67;;;9.70;99.90;;;;;;5104147;28;20087;-84
2023/03/24 07:03:41;;;;;;;11.27;1.90;;;9.70;99.90;;;;;;5070826;28;20371;-83
2023/03/24 07:06:08;;;;;;;8.60;2.38;;;9.80;99.90;;;;;;5120695;28;20099;-83
2023/03/24 07:08:36;;;;;;;7.20;1.40;;;9.70;99.90;;;;;;5087349;28;20040;-83
2023/03/24 07:11:03;;;;;;;9.05;1.83;;;9.80;99.90;;;;;;5103961;28;20165;-83
2023/03/24 07:13:30;;;;;;;7.18;1.90;;;9.80;99.90;;;;;;5070256;28;20068;-83
2023/03/24 07:15:57;;;;;;;9.38;1.80;;;9.80;99.90;;;;;;5069803;28;20079;-83
2023/03/24 07:18:23;;;;;;;9.15;1.83;;;9.90;99.90;;;;;;5086599;28;20049;-84
2023/03/24 07:20:50;;;;;;;7.72;1.77;;;9.90;99.90;;;;;;5070102;28;20139;-83
2023/03/24 07:23:17;;;;;;;9.80;1.70;;;9.90;99.90;;;;;;5069457;28;20037;-84
2023/03/24 07:25:44;;;;;;;7.80;1.98;;;9.90;99.90;;;;;;5069315;28;20075;-84
2023/03/24 07:28:11;;;;;;;9.60;2.40;;;10.00;99.90;;;;;;5102856;28;20041;-83
2023/03/24 07:30:37;;;;;;;10.35;2.03;;;10.00;99.90;;;;;;5097592;28;20548;-83
2023/03/24 07:33:06;;;;;;;14.40;2.35;;;10.00;99.90;;;;;;5111676;28;20036;-83
2023/03/24 07:35:33;;;;;;;11.25;2.38;;;10.00;99.90;;;;;;5069811;28;20033;-84
2023/03/24 07:38:00;;;;;;;11.65;1.60;;;10.00;99.90;;;;;;5052889;28;20047;-84
2023/03/24 07:40:27;;;;;;;10.38;2.10;;;10.00;99.90;;;;;;5103260;28;20128;-84
2023/03/24 07:42:53;;;;;;;8.20;3.33;;;10.00;99.90;;;;;;5102839;28;20065;-84
2023/03/24 07:45:20;;;;;;;10.82;1.90;;;10.00;99.90;;;;;;5069677;28;20106;-84
2023/03/24 07:47:47;;;;;;;12.57;2.03;;;10.00;99.90;;;;;;5085979;28;20052;-83
2023/03/24 07:50:14;;;;;;;13.10;2.05;;;10.10;99.90;;;;;;5069942;28;20072;-83
2023/03/24 07:52:46;;;;;;;11.10;2.42;;;10.10;99.90;;;;;;5069788;28;20079;-84
2023/03/24 07:55:14;;;;;;;11.15;2.05;;;10.10;99.90;;;;;;5086503;28;20045;-83
2023/03/24 07:57:42;;;;;;;10.15;1.85;;;10.10;99.90;;;;;;5053555;28;20033;-83
2023/03/24 08:00:18;;;;;;;12.30;1.90;;;10.20;99.90;;;;;;5068994;28;20068;-84
2023/03/24 08:02:48;;;;;;;15.02;2.15;;;10.20;99.90;;;;;;5085339;28;20412;-83
2023/03/24 08:05:17;;;;;;;11.18;2.00;;;10.20;99.90;;;;;;5069390;28;20408;-83
2023/03/24 08:07:52;;;;;;;10.35;1.92;;;10.20;99.90;;;;;;5083682;28;20080;-83
2023/03/24 08:10:22;;;;;;;11.55;2.13;;;10.30;99.90;;;;;;5067525;28;20056;-83
2023/03/24 08:12:50;;;;;;;11.57;3.10;;;10.30;99.90;;;;;;5068477;28;20520;-83
2023/03/24 08:15:17;;;;;;;14.32;2.35;;;10.30;99.90;;;;;;5052874;28;20048;-84
2023/03/24 08:17:44;;;;;;;10.25;1.85;;;10.30;99.90;;;;;;5068804;28;20127;-83
2023/03/24 08:20:14;;;;;;;11.27;2.03;;;10.30;99.90;;;;;;5069281;28;20037;-82
2023/03/24 08:22:43;;;;;;;13.48;2.45;;;10.30;99.90;;;;;;5052709;28;20044;-82
2023/03/24 08:25:12;;;;;;;20.10;2.22;;;10.30;99.90;;;;;;5084909;28;20045;-83
2023/03/24 08:27:39;;;;;;;14.20;2.35;;;10.30;99.90;;;;;;5068944;28;20037;-82
2023/03/24 08:30:09;;;;;;;10.27;2.00;;;10.30;99.90;;;;;;5068453;28;20040;-82
2023/03/24 08:32:36;;;;;;;10.35;1.90;;;10.30;99.90;;;;;;5085165;28;20052;-82
2023/03/24 08:35:03;;;;;;;13.48;2.63;;;10.40;99.90;;;;;;5084449;28;20037;-83
2023/03/24 08:37:30;;;;;;;12.98;2.80;;;10.40;99.90;;;;;;5068687;28;20077;-83
2023/03/24 08:40:10;;;;;;;15.27;2.47;;;10.40;99.90;;;;;;5068254;28;21055;-83
2023/03/24 08:42:37;;;;;;;13.63;2.00;;;10.40;99.90;;;;;;5068467;28;20037;-83
2023/03/24 08:45:04;;;;;;;13.68;3.05;;;10.40;99.90;;;;;;5084759;28;20167;-83
2023/03/24 08:47:31;;;;;;;15.35;2.22;;;10.50;99.90;;;;;;5101889;28;20102;-83
2023/03/24 08:49:58;;;;;;;13.40;2.50;;;10.50;99.90;;;;;;5068394;28;20127;-82
2023/03/24 08:52:25;;;;;;;10.68;2.00;;;10.60;99.90;;;;;;5101813;28;20045;-81
2023/03/24 08:54:52;;;;;;;16.10;2.65;;;10.60;99.90;;;;;;5068189;28;20059;-82
2023/03/24 08:57:18;;;;;;;14.18;2.15;;;10.60;99.90;;;;;;5084815;28;20045;-82
2023/03/24 08:59:45;;;;;;;14.90;3.40;;;10.60;99.90;;;;;;5101453;28;20486;-82
2023/03/24 09:02:12;;;;;;;11.77;2.13;;;10.60;99.90;;;;;;5101392;28;20037;-82
2023/03/24 09:04:41;;;;;;;10.38;1.73;;;10.70;99.90;;;;;;5084864;28;20131;-82
2023/03/24 09:07:09;;;;;;;10.80;2.15;;;10.80;99.90;;;;;;5067966;28;20048;-81
2023/03/24 09:09:35;;;;;;;12.10;2.33;;;10.80;99.90;;;;;;5068177;28;20102;-82
2023/03/24 09:12:02;;;;;;;15.23;2.30;;;10.80;99.90;;;;;;5084529;28;20048;-82
2023/03/24 09:14:29;;;;;;;12.10;2.20;;;10.70;99.90;;;;;;5079886;28;20051;-82
2023/03/24 09:16:56;;;;;;;15.73;2.70;;;10.70;99.90;;;;;;5083651;28;20469;-83
2023/03/24 09:19:22;;;;;;;10.90;2.20;;;10.70;99.90;;;;;;5051852;28;20040;-83
2023/03/24 09:21:49;;;;;;;14.43;2.28;;;10.60;99.90;;;;;;5052085;28;20455;-82
2023/03/24 09:24:16;;;;;;;16.17;3.60;;;10.70;99.90;;;;;;5055155;28;20128;-83
2023/03/24 09:26:42;;;;;;;13.98;2.47;;;10.90;99.90;;;;;;5055796;28;20033;-83
2023/03/24 09:29:09;;;;;;;13.65;2.65;;;11.00;99.90;;;;;;5088308;28;20063;-82
2023/03/24 09:31:36;;;;;;;12.57;2.60;;;11.00;99.90;;;;;;5071820;28;20463;-82
2023/03/24 09:34:03;;;;;;;12.48;2.50;;;10.90;99.90;;;;;;5055103;28;20041;-83
2023/03/24 09:36:30;;;;;;;13.80;2.22;;;10.80;99.90;;;;;;5072206;28;20045;-83
2023/03/24 09:38:56;;;;;;;9.27;2.53;;;10.70;99.90;;;;;;5054905;28;20037;-83
2023/03/24 09:41:29;;;;;;;9.57;1.90;;;10.70;99.90;;;;;;5071923;28;20862;-82
2023/03/24 09:44:16;;;;;;;11.35;2.15;;;10.60;99.90;;;;;;5071650;28;20133;-83
2023/03/24 09:46:49;;;;;;;14.63;3.28;;;10.50;99.90;;;;;;5071134;28;20580;-83
2023/03/24 09:49:28;;;;;;;9.88;2.33;;;10.50;99.90;;;;;;5070768;28;20404;-83
2023/03/24 09:52:06;;;;;;;13.23;2.55;;;10.60;99.90;;;;;;5087944;28;20051;-83
2023/03/24 09:54:50;;;;;;;12.85;2.40;;;10.90;99.90;;;;;;5070791;28;20041;-83
2023/03/24 09:57:40;;;;;;;11.50;2.10;;;11.10;99.90;;;;;;5087508;28;20045;-83
2023/03/24 10:00:22;;;;;;;12.45;2.35;;;11.30;99.90;;;;;;5071234;28;20039;-83
2023/03/24 10:02:50;;;;;;;13.88;2.33;;;11.50;99.90;;;;;;5103457;28;20052;-83
2023/03/24 10:05:36;;;;;;;11.93;2.75;;;11.70;99.90;;;;;;5067679;28;20041;-83
2023/03/24 10:08:20;;;;;;;10.43;2.03;;;11.70;99.90;;;;;;5069439;28;20103;-84
2023/03/24 10:11:16;;;;;;;10.63;2.10;;;11.60;99.90;;;;;;5050793;28;20053;-82
2023/03/24 10:13:51;;;;;;;12.48;3.28;;;11.50;99.90;;;;;;5065643;28;20049;-83
2023/03/24 10:16:35;;;;;;;12.70;1.70;;;11.20;99.90;;;;;;5070043;28;20083;-83
2023/03/24 10:19:43;;;;;;;14.48;2.92;;;11.10;99.90;;;;;;5070677;28;20432;-82
2023/03/24 10:22:31;;;;;;;13.70;2.40;;;11.10;99.90;;;;;;5057657;28;20049;-83
2023/03/24 10:25:18;;;;;;;12.77;2.05;;;11.30;99.90;;;;;;5070694;28;20043;-83
2023/03/24 10:28:26;;;;;;;13.80;2.10;;;11.60;99.90;;;;;;5070969;28;20567;-83
2023/03/24 10:30:59;;;;;;;9.60;2.17;;;11.90;99.90;;;;;;5081397;28;20140;-83
2023/03/24 10:33:26;;;;;;;10.15;1.95;;;12.30;99.90;;;;;;5070902;28;20070;-83
2023/03/24 10:36:00;;;;;;;10.68;2.00;;;12.30;99.90;;;;;;5070920;28;20049;-82
2023/03/24 10:38:27;;;;;;;11.18;2.05;;;12.40;99.90;;;;;;5070880;28;20045;-82
2023/03/24 10:40:54;;;;;;;9.27;1.83;;;12.50;99.90;;;;;;5069379;28;20114;-83
2023/03/24 10:43:22;;;;;;;14.80;2.08;;;12.70;99.90;;;;;;5053320;28;20041;-82
2023/03/24 10:45:52;;;;;;;13.75;2.38;;;12.90;99.90;;;;;;5070370;28;20072;-83
2023/03/24 10:48:48;;;;;;;8.90;2.10;;;12.90;99.90;;;;;;5070191;28;20071;-83
2023/03/24 10:51:15;;;;;;;;;;;12.70;99.90;;;;;;5087487;28;20044;-84
2023/03/24 10:53:46;;;;;;;12.50;1.95;;;12.50;99.90;;;;;;5103978;28;19920;-84
2023/03/24 10:56:38;;;;;;;9.98;2.03;;;12.20;99.90;;;;;;5070206;28;20134;-84
2023/03/24 10:59:33;;;;;;;11.20;1.52;;;11.90;99.90;;;;;;5074469;28;20080;-84
2023/03/24 11:02:09;;;;;;;9.50;1.87;;;11.70;99.90;;;;;;5073766;28;20123;-84
2023/03/24 11:04:39;;;;;;;9.23;1.73;;;11.50;99.90;;;;;;5080489;28;20094;-84
2023/03/24 11:07:19;;;;;;;7.80;1.88;;;11.40;99.90;;;;;;5086575;28;20048;-84
2023/03/24 11:10:01;;;;;;;11.15;2.17;;;11.30;99.90;;;;;;5070170;28;20057;-84
2023/03/24 11:12:30;;;;;;;12.07;1.98;;;11.20;99.90;;;;;;5103325;28;20052;-84
2023/03/24 11:15:18;;;;;;;12.50;2.10;;;11.20;99.90;;;;;;5070340;28;20382;-84
2023/03/24 11:17:51;;;;;;;12.90;2.20;;;11.10;99.90;;;;;;5103058;28;20041;-84
2023/03/24 11:20:36;;;;;;;12.98;2.42;;;11.20;99.90;;;;;;5070153;28;20051;-81
2023/03/24 11:23:09;;;;;;;15.60;2.65;;;11.20;99.90;;;;;;5070211;28;20504;-82
2023/03/24 11:25:40;;;;;;;11.57;2.10;;;11.30;99.90;;;;;;5069997;28;20041;-83
2023/03/24 11:28:13;;;;;;;13.95;2.17;;;11.50;99.90;;;;;;5086278;28;20044;-83
2023/03/24 11:30:45;;;;;;;10.98;1.52;;;11.60;99.90;;;;;;5070133;28;20045;-83
2023/03/24 11:33:40;;;;;;;12.73;2.25;;;11.60;99.90;;;;;;5086262;28;20088;-82
2023/03/24 11:36:30;;;;;;;14.93;2.40;;;11.80;99.90;;;;;;5069514;28;20078;-83
2023/03/24 11:39:10;;;;;;;11.85;2.15;;;12.20;99.90;;;;;;5075602;28;20510;-83
2023/03/24 11:41:39;;;;;;;11.50;2.40;;;12.40;99.90;;;;;;5086657;28;20158;-83
2023/03/24 11:44:15;;;;;;;7.72;1.75;;;12.60;99.90;;;;;;5069260;28;20400;-83
2023/03/24 11:46:43;;;;;;;;;;;12.70;99.90;;;;;;5103393;28;20095;-83
2023/03/24 11:49:15;;;;;;;9.95;1.60;;;12.90;99.90;;;;;;5086052;28;20008;-83
2023/03/24 11:51:45;;;;;;;7.68;1.52;;;13.20;99.90;;;;;;5069522;28;20401;-83
2023/03/24 11:54:17;;;;;;;12.07;1.83;;;13.40;99.90;;;;;;5069013;28;20044;-83
2023/03/24 11:56:52;;;;;;;8.43;1.60;;;13.40;99.90;;;;;;5085839;28;20037;-83
2023/03/24 11:59:30;;;;;;;8.07;1.40;;;13.50;99.90;;;;;;5068959;28;20083;-84
2023/03/24 12:02:06;;;;;;;9.20;1.63;;;13.50;99.90;;;;;;5102977;28;20045;-83
2023/03/24 12:04:32;;;;;;;8.10;1.27;;;13.50;99.90;;;;;;5085927;28;20041;-83
2023/03/24 12:07:21;;;;;;;6.38;1.63;;;13.50;99.90;;;;;;5102473;28;20056;-83
2023/03/24 12:09:53;;;;;;;7.93;1.67;;;13.60;99.90;;;;;;5085962;28;20107;-83
2023/03/24 12:12:29;;;;;;;6.70;1.58;;;13.60;99.90;;;;;;5101999;28;20076;-84
2023/03/24 12:15:11;;;;;;;;;;;13.70;99.90;;;;;;5102735;28;20503;-84
2023/03/24 12:17:48;;;;;;;8.63;1.50;;;13.60;99.90;;;;;;5102629;28;20418;-84
2023/03/24 12:20:27;;;;;;;8.80;2.10;;;13.60;99.90;;;;;;5069168;28;20036;-83
2023/03/24 12:23:13;;;;;;;8.32;1.98;;;13.70;99.90;;;;;;5102405;28;20519;-84
2023/03/24 12:25:59;;;;;;;7.40;1.50;;;13.80;99.90;;;;;;5102226;28;20068;-84
2023/03/24 12:28:38;;;;;;;9.35;1.48;;;13.90;99.90;;;;;;5102709;28;20080;-83
2023/03/24 12:31:27;;;;;;;8.93;2.15;;;13.70;99.90;;;;;;5102375;28;20127;-84
2023/03/24 12:34:02;;;;;;;9.77;1.95;;;13.40;99.90;;;;;;5069211;28;20072;-83
2023/03/24 12:36:43;;;;;;;7.05;1.52;;;13.10;99.90;;;;;;5102103;28;20123;-83
2023/03/24 12:39:12;;;;;;;8.60;1.70;;;13.00;99.90;;;;;;5085697;28;20068;-84
2023/03/24 12:41:48;;;;;;;13.60;2.47;;;12.90;99.90;;;;;;5101740;28;20080;-83
2023/03/24 12:44:17;;;;;;;9.45;1.73;;;12.80;99.90;;;;;;5102189;28;20148;-84
2023/03/24 12:47:05;;;;;;;10.18;1.92;;;12.70;99.90;;;;;;5102324;28;20047;-84
2023/03/24 12:49:58;;;;;;;10.30;1.98;;;12.60;99.90;;;;;;5101909;28;20045;-83
2023/03/24 12:52:45;;;;;;;9.93;1.90;;;12.70;99.90;;;;;;5068259;28;20052;-83
2023/03/24 12:55:27;;;;;;;8.70;1.92;;;12.80;99.90;;;;;;5081066;28;20045;-83
2023/03/24 12:58:01;;;;;;;9.50;1.65;;;12.80;99.90;;;;;;5089325;28;20045;-83
2023/03/24 13:00:33;;;;;;;9.60;1.83;;;12.80;99.90;;;;;;5072604;28;20052;-84
2023/03/24 13:03:20;;;;;;;12.93;1.85;;;12.70;99.90;;;;;;5089208;28;20068;-83
2023/03/24 13:05:51;;;;;;;10.25;2.10;;;12.70;99.90;;;;;;5072821;28;20040;-84
2023/03/24 13:08:28;;;;;;;10.40;1.88;;;12.70;99.90;;;;;;5072658;28;20045;-83
2023/03/24 13:11:05;;;;;;;9.90;2.00;;;12.70;99.90;;;;;;5088157;28;20116;-83
2023/03/24 13:13:40;;;;;;;5.22;1.50;;;12.70;99.90;;;;;;5089139;28;20473;-84
2023/03/24 13:16:21;;;;;;;7.45;1.70;;;12.70;99.90;;;;;;5069437;28;20088;-84